createdAt,value
2022-09-11T00:00:53.213Z,1007.66
2022-09-11T00:01:53.272Z,1007.67
2022-09-11T00:02:53.305Z,1007.65
2022-09-11T00:03:53.279Z,1007.68
2022-09-11T00:04:53.287Z,1007.70
2022-09-11T00:05:53.303Z,1007.69
2022-09-11T00:06:53.323Z,1007.68
2022-09-11T00:07:53.342Z,1007.67
2022-09-11T00:08:53.357Z,1007.67
2022-09-11T00:09:53.378Z,1007.67
2022-09-11T00:10:53.394Z,1007.67
2022-09-11T00:11:53.411Z,1007.71
2022-09-11T00:12:53.457Z,1007.71
2022-09-11T00:13:53.447Z,1007.68
2022-09-11T00:14:53.467Z,1007.64
2022-09-11T00:15:53.519Z,1007.66
2022-09-11T00:16:53.504Z,1007.68
2022-09-11T00:17:53.517Z,1007.67
2022-09-11T00:18:53.536Z,1007.66
2022-09-11T00:19:53.554Z,1007.68
2022-09-11T00:20:53.572Z,1007.69
2022-09-11T00:21:53.591Z,1007.70
2022-09-11T00:22:53.610Z,1007.67
2022-09-11T00:23:53.625Z,1007.66
2022-09-11T00:24:53.647Z,1007.69
2022-09-11T00:25:53.667Z,1007.69
2022-09-11T00:26:53.681Z,1007.71
2022-09-11T00:27:53.697Z,1007.68
2022-09-11T00:28:53.720Z,1007.71
2022-09-11T00:29:53.735Z,1007.71
2022-09-11T00:30:53.754Z,1007.70
2022-09-11T00:31:53.768Z,1007.71
2022-09-11T00:32:53.789Z,1007.70
2022-09-11T00:33:53.804Z,1007.72
2022-09-11T00:34:53.825Z,1007.73
2022-09-11T00:35:53.840Z,1007.74
2022-09-11T00:36:53.859Z,1007.71
2022-09-11T00:37:53.877Z,1007.75
2022-09-11T00:38:53.898Z,1007.74
2022-09-11T00:39:54.009Z,1007.76
2022-09-11T00:40:53.929Z,1007.71
2022-09-11T00:41:53.948Z,1007.75
2022-09-11T00:42:53.967Z,1007.74
2022-09-11T00:43:53.987Z,1007.73
2022-09-11T00:44:54.006Z,1007.68
2022-09-11T00:45:54.028Z,1007.70
2022-09-11T00:46:54.039Z,1007.67
2022-09-11T00:47:54.054Z,1007.64
2022-09-11T00:48:54.072Z,1007.73
2022-09-11T00:49:54.090Z,1007.74
2022-09-11T00:50:54.108Z,1007.75
2022-09-11T00:51:54.123Z,1007.76
2022-09-11T00:52:54.144Z,1007.77
2022-09-11T00:53:54.161Z,1007.75
2022-09-11T00:54:54.181Z,1007.77
2022-09-11T00:55:54.196Z,1007.74
2022-09-11T00:56:54.229Z,1007.76
2022-09-11T00:57:54.242Z,1007.76
2022-09-11T00:58:54.254Z,1007.76
2022-09-11T00:59:54.269Z,1007.75
2022-09-11T01:00:54.371Z,1007.76
2022-09-11T01:01:54.394Z,1007.77
2022-09-11T01:02:54.324Z,1007.80
2022-09-11T01:03:54.339Z,1007.76
2022-09-11T01:04:54.357Z,1007.75
2022-09-11T01:05:54.374Z,1007.75
2022-09-11T01:06:54.393Z,1007.76
2022-09-11T01:07:54.441Z,1007.76
2022-09-11T01:08:54.428Z,1007.72
2022-09-11T01:09:54.448Z,1007.77
2022-09-11T01:10:54.464Z,1007.72
2022-09-11T01:11:54.480Z,1007.76
2022-09-11T01:12:54.501Z,1007.72
2022-09-11T01:13:54.517Z,1007.72
2022-09-11T01:14:54.537Z,1007.70
2022-09-11T01:15:54.598Z,1007.72
2022-09-11T01:16:54.568Z,1007.70
2022-09-11T01:17:54.591Z,1007.73
2022-09-11T01:18:54.609Z,1007.72
2022-09-11T01:19:54.627Z,1007.71
2022-09-11T01:20:54.643Z,1007.72
2022-09-11T01:21:54.658Z,1007.71
2022-09-11T01:22:54.677Z,1007.71
2022-09-11T01:23:54.693Z,1007.70
2022-09-11T01:24:54.712Z,1007.69
2022-09-11T01:25:54.729Z,1007.76
2022-09-11T01:26:54.748Z,1007.75
2022-09-11T01:27:54.765Z,1007.74
2022-09-11T01:28:54.785Z,1007.71
2022-09-11T01:29:54.803Z,1007.75
2022-09-11T01:30:54.817Z,1007.75
2022-09-11T01:31:54.834Z,1007.73
2022-09-11T01:32:54.852Z,1007.72
2022-09-11T01:33:54.873Z,1007.77
2022-09-11T01:34:54.888Z,1007.74
2022-09-11T01:35:54.907Z,1007.76
2022-09-11T01:36:54.922Z,1007.76
2022-09-11T01:37:54.942Z,1007.77
2022-09-11T01:38:54.958Z,1007.80
2022-09-11T01:39:55.040Z,1007.81
2022-09-11T01:40:54.992Z,1007.83
2022-09-11T01:41:55.012Z,1007.86
2022-09-11T01:42:55.032Z,1007.81
2022-09-11T01:43:55.045Z,1007.81
2022-09-11T01:44:55.064Z,1007.80
2022-09-11T01:45:55.137Z,1007.81
2022-09-11T01:46:55.099Z,1007.82
2022-09-11T01:47:55.123Z,1007.77
2022-09-11T01:48:55.139Z,1007.81
2022-09-11T01:49:55.151Z,1007.81
2022-09-11T01:50:55.172Z,1007.81
2022-09-11T01:51:55.197Z,1007.79
2022-09-11T01:52:55.224Z,1007.85
2022-09-11T01:53:55.222Z,1007.83
2022-09-11T01:54:55.242Z,1007.81
2022-09-11T01:55:55.256Z,1007.84
2022-09-11T01:56:55.273Z,1007.85
2022-09-11T01:57:55.291Z,1007.89
2022-09-11T01:58:55.310Z,1007.88
2022-09-11T01:59:55.330Z,1007.91
2022-09-11T02:00:55.374Z,1007.91
2022-09-11T02:01:55.399Z,1007.89
2022-09-11T02:02:55.386Z,1007.90
2022-09-11T02:03:55.399Z,1007.88
2022-09-11T02:04:55.416Z,1007.85
2022-09-11T02:05:55.433Z,1007.87
2022-09-11T02:06:55.451Z,1007.87
2022-09-11T02:07:55.469Z,1007.84
2022-09-11T02:08:55.487Z,1007.86
2022-09-11T02:09:55.503Z,1007.89
2022-09-11T02:10:55.522Z,1007.86
2022-09-11T02:11:55.542Z,1007.88
2022-09-11T02:12:55.557Z,1007.90
2022-09-11T02:13:55.577Z,1007.87
2022-09-11T02:14:55.593Z,1007.90
2022-09-11T02:15:55.639Z,1007.89
2022-09-11T02:16:55.624Z,1007.89
2022-09-11T02:17:55.644Z,1007.92
2022-09-11T02:18:55.661Z,1007.91
2022-09-11T02:19:55.677Z,1007.94
2022-09-11T02:20:55.698Z,1007.94
2022-09-11T02:21:55.712Z,1007.90
2022-09-11T02:22:55.731Z,1007.94
2022-09-11T02:23:55.748Z,1007.92
2022-09-11T02:24:55.765Z,1007.96
2022-09-11T02:25:55.783Z,1007.96
2022-09-11T02:26:55.809Z,1007.93
2022-09-11T02:27:55.819Z,1007.92
2022-09-11T02:28:55.837Z,1007.92
2022-09-11T02:29:55.854Z,1007.92
2022-09-11T02:30:55.875Z,1007.97
2022-09-11T02:31:55.889Z,1007.95
2022-09-11T02:32:55.905Z,1007.97
2022-09-11T02:33:55.925Z,1007.94
2022-09-11T02:34:55.941Z,1007.93
2022-09-11T02:35:55.960Z,1007.95
2022-09-11T02:36:55.976Z,1007.91
2022-09-11T02:37:55.994Z,1007.93
2022-09-11T02:38:56.013Z,1007.91
2022-09-11T02:39:56.086Z,1007.95
2022-09-11T02:40:56.047Z,1007.97
2022-09-11T02:41:56.065Z,1007.93
2022-09-11T02:42:56.081Z,1007.98
2022-09-11T02:43:56.097Z,1007.96
2022-09-11T02:44:56.210Z,1007.97
2022-09-11T02:45:56.187Z,1007.96
2022-09-11T02:46:56.152Z,1007.97
2022-09-11T02:47:56.167Z,1007.98
2022-09-11T02:48:56.184Z,1007.99
2022-09-11T02:49:56.202Z,1007.99
2022-09-11T02:50:56.219Z,1008.02
2022-09-11T02:51:56.239Z,1007.99
2022-09-11T02:52:56.253Z,1008.00
2022-09-11T02:53:56.273Z,1008.00
2022-09-11T02:54:56.289Z,1008.02
2022-09-11T02:55:56.307Z,1008.06
2022-09-11T02:56:56.336Z,1008.10
2022-09-11T02:57:56.347Z,1008.08
2022-09-11T02:58:56.360Z,1008.05
2022-09-11T02:59:56.377Z,1008.08
2022-09-11T03:00:56.437Z,1008.02
2022-09-11T03:01:56.463Z,1008.01
2022-09-11T03:02:56.430Z,1008.03
2022-09-11T03:03:56.443Z,1008.05
2022-09-11T03:04:56.460Z,1008.05
2022-09-11T03:05:56.480Z,1008.09
2022-09-11T03:06:56.497Z,1008.06
2022-09-11T03:07:56.513Z,1008.06
2022-09-11T03:08:56.538Z,1008.06
2022-09-11T03:09:56.550Z,1008.07
2022-09-11T03:10:56.568Z,1008.08
2022-09-11T03:11:56.583Z,1008.10
2022-09-11T03:12:56.598Z,1008.10
2022-09-11T03:13:56.617Z,1008.13
2022-09-11T03:14:56.634Z,1008.11
2022-09-11T03:15:56.744Z,1008.11
2022-09-11T03:16:56.667Z,1008.09
2022-09-11T03:17:56.686Z,1008.11
2022-09-11T03:18:56.704Z,1008.10
2022-09-11T03:19:56.720Z,1008.14
2022-09-11T03:20:56.739Z,1008.15
2022-09-11T03:21:56.755Z,1008.16
2022-09-11T03:22:56.778Z,1008.19
2022-09-11T03:23:56.789Z,1008.20
2022-09-11T03:24:56.805Z,1008.23
2022-09-11T03:25:56.826Z,1008.26
2022-09-11T03:26:56.842Z,1008.27
2022-09-11T03:27:56.857Z,1008.31
2022-09-11T03:28:56.873Z,1008.33
2022-09-11T03:29:56.894Z,1008.30
2022-09-11T03:30:56.910Z,1008.34
2022-09-11T03:31:56.949Z,1008.34
2022-09-11T03:32:56.943Z,1008.31
2022-09-11T03:33:56.967Z,1008.34
2022-09-11T03:34:56.980Z,1008.32
2022-09-11T03:35:56.998Z,1008.36
2022-09-11T03:36:57.013Z,1008.35
2022-09-11T03:37:57.033Z,1008.40
2022-09-11T03:38:57.055Z,1008.37
2022-09-11T03:39:57.098Z,1008.39
2022-09-11T03:40:57.083Z,1008.39
2022-09-11T03:41:57.107Z,1008.39
2022-09-11T03:42:57.133Z,1008.41
2022-09-11T03:43:57.134Z,1008.41
2022-09-11T03:44:57.152Z,1008.45
2022-09-11T03:45:57.208Z,1008.48
2022-09-11T03:46:57.186Z,1008.51
2022-09-11T03:47:57.202Z,1008.53
2022-09-11T03:48:57.224Z,1008.54
2022-09-11T03:49:57.238Z,1008.56
2022-09-11T03:50:57.257Z,1008.53
2022-09-11T03:51:57.274Z,1008.58
2022-09-11T03:52:57.293Z,1008.56
2022-09-11T03:53:57.307Z,1008.60
2022-09-11T03:54:57.323Z,1008.58
2022-09-11T03:55:57.343Z,1008.58
2022-09-11T03:56:57.360Z,1008.61
2022-09-11T03:57:57.386Z,1008.58
2022-09-11T03:58:57.396Z,1008.57
2022-09-11T03:59:57.410Z,1008.65
2022-09-11T04:00:57.479Z,1008.64
2022-09-11T04:01:57.525Z,1008.60
2022-09-11T04:02:57.464Z,1008.62
2022-09-11T04:03:57.480Z,1008.65
2022-09-11T04:04:57.497Z,1008.65
2022-09-11T04:05:57.514Z,1008.67
2022-09-11T04:06:57.531Z,1008.68
2022-09-11T04:07:57.550Z,1008.68
2022-09-11T04:08:57.569Z,1008.67
2022-09-11T04:09:57.583Z,1008.67
2022-09-11T04:10:57.630Z,1008.66
2022-09-11T04:11:57.619Z,1008.67
2022-09-11T04:12:57.635Z,1008.69
2022-09-11T04:13:57.657Z,1008.73
2022-09-11T04:14:57.676Z,1008.71
2022-09-11T04:15:57.687Z,1008.76
2022-09-11T04:16:57.704Z,1008.73
2022-09-11T04:18:00.038Z,1008.75
2022-09-11T04:18:57.740Z,1008.77
2022-09-11T04:19:57.766Z,1008.78
2022-09-11T04:20:57.773Z,1008.77
2022-09-11T04:21:57.795Z,1008.73
2022-09-11T04:22:57.807Z,1008.80
2022-09-11T04:23:57.824Z,1008.79
2022-09-11T04:24:57.843Z,1008.76
2022-09-11T04:25:57.861Z,1008.79
2022-09-11T04:27:00.757Z,1008.78
2022-09-11T04:27:57.901Z,1008.80
2022-09-11T04:28:57.911Z,1008.80
2022-09-11T04:29:57.931Z,1008.83
2022-09-11T04:30:57.947Z,1008.86
2022-09-11T04:31:58.057Z,1008.86
2022-09-11T04:32:57.979Z,1008.82
2022-09-11T04:33:58.240Z,1008.88
2022-09-11T04:34:58.021Z,1008.89
2022-09-11T04:35:58.031Z,1008.90
2022-09-11T04:36:58.049Z,1008.88
2022-09-11T04:37:58.082Z,1008.89
2022-09-11T04:38:58.085Z,1008.88
2022-09-11T04:39:58.135Z,1008.84
2022-09-11T04:40:58.119Z,1008.89
2022-09-11T04:41:58.138Z,1008.85
2022-09-11T04:42:58.155Z,1008.87
2022-09-11T04:44:02.416Z,1008.86
2022-09-11T04:44:58.186Z,1008.91
2022-09-11T04:45:58.216Z,1008.90
2022-09-11T04:46:58.224Z,1008.93
2022-09-11T04:47:58.239Z,1008.93
2022-09-11T04:48:58.255Z,1008.97
2022-09-11T04:49:58.274Z,1008.96
2022-09-11T04:50:58.290Z,1008.93
2022-09-11T04:51:58.307Z,1008.96
2022-09-11T04:52:58.327Z,1008.95
2022-09-11T04:53:58.344Z,1008.94
2022-09-11T04:54:58.363Z,1008.94
2022-09-11T04:55:58.378Z,1008.95
2022-09-11T04:56:58.397Z,1008.95
2022-09-11T04:57:58.413Z,1009.01
2022-09-11T04:58:58.432Z,1008.99
2022-09-11T04:59:58.448Z,1008.97
2022-09-11T05:00:58.519Z,1008.93
2022-09-11T05:01:58.539Z,1008.97
2022-09-11T05:02:58.499Z,1008.96
2022-09-11T05:03:58.517Z,1008.94
2022-09-11T05:04:58.537Z,1008.92
2022-09-11T05:05:58.553Z,1008.89
2022-09-11T05:06:58.571Z,1008.92
2022-09-11T05:07:58.588Z,1008.89
2022-09-11T05:08:58.615Z,1008.88
2022-09-11T05:09:58.631Z,1008.89
2022-09-11T05:10:58.654Z,1008.91
2022-09-11T05:11:58.657Z,1008.90
2022-09-11T05:12:58.678Z,1008.91
2022-09-11T05:13:58.696Z,1008.95
2022-09-11T05:14:58.714Z,1008.95
2022-09-11T05:15:58.729Z,1008.99
2022-09-11T05:16:58.745Z,1009.01
2022-09-11T05:17:58.770Z,1009.02
2022-09-11T05:18:58.792Z,1009.04
2022-09-11T05:19:58.800Z,1009.03
2022-09-11T05:20:58.817Z,1009.04
2022-09-11T05:21:58.844Z,1009.01
2022-09-11T05:22:58.857Z,1009.02
2022-09-11T05:23:58.872Z,1009.00
2022-09-11T05:24:58.890Z,1009.07
2022-09-11T05:25:58.908Z,1009.05
2022-09-11T05:26:58.943Z,1009.07
2022-09-11T05:27:58.949Z,1009.09
2022-09-11T05:28:58.959Z,1009.07
2022-09-11T05:29:58.993Z,1009.12
2022-09-11T05:30:58.997Z,1009.11
2022-09-11T05:31:59.071Z,1009.14
2022-09-11T05:32:59.036Z,1009.14
2022-09-11T05:33:59.063Z,1009.20
2022-09-11T05:34:59.070Z,1009.15
2022-09-11T05:35:59.086Z,1009.20
2022-09-11T05:36:59.105Z,1009.23
2022-09-11T05:37:59.123Z,1009.22
2022-09-11T05:38:59.142Z,1009.28
2022-09-11T05:39:59.240Z,1009.23
2022-09-11T05:40:59.178Z,1009.28
2022-09-11T05:41:59.199Z,1009.34
2022-09-11T05:42:59.215Z,1009.31
2022-09-11T05:43:59.238Z,1009.32
2022-09-11T05:44:59.253Z,1009.32
2022-09-11T05:45:59.295Z,1009.35
2022-09-11T05:46:59.289Z,1009.35
2022-09-11T05:47:59.308Z,1009.39
2022-09-11T05:48:59.324Z,1009.39
2022-09-11T05:49:59.348Z,1009.42
2022-09-11T05:50:59.364Z,1009.44
2022-09-11T05:51:59.381Z,1009.49
2022-09-11T05:52:59.397Z,1009.52
2022-09-11T05:53:59.417Z,1009.48
2022-09-11T05:54:59.437Z,1009.55
2022-09-11T05:55:59.453Z,1009.56
2022-09-11T05:56:59.471Z,1009.60
2022-09-11T05:57:59.490Z,1009.63
2022-09-11T05:58:59.509Z,1009.64
2022-09-11T05:59:59.526Z,1009.66
2022-09-11T06:00:59.557Z,1009.70
2022-09-11T06:01:59.588Z,1009.72
2022-09-11T06:02:59.585Z,1009.74
2022-09-11T06:03:59.601Z,1009.72
2022-09-11T06:04:59.619Z,1009.78
2022-09-11T06:05:59.638Z,1009.78
2022-09-11T06:06:59.659Z,1009.79
2022-09-11T06:07:59.679Z,1009.77
2022-09-11T06:08:59.692Z,1009.83
2022-09-11T06:10:02.937Z,1009.83
2022-09-11T06:10:59.730Z,1009.86
2022-09-11T06:11:59.750Z,1009.84
2022-09-11T06:12:59.766Z,1009.91
2022-09-11T06:13:59.784Z,1009.90
2022-09-11T06:14:59.807Z,1009.90
2022-09-11T06:15:59.823Z,1009.90
2022-09-11T06:16:59.860Z,1009.90
2022-09-11T06:17:59.858Z,1009.88
2022-09-11T06:19:00.351Z,1009.90
2022-09-11T06:19:59.898Z,1009.90
2022-09-11T06:20:59.918Z,1009.88
2022-09-11T06:21:59.941Z,1009.94
2022-09-11T06:22:59.952Z,1009.97
2022-09-11T06:23:59.971Z,1009.96
2022-09-11T06:24:59.992Z,1010.00
2022-09-11T06:26:00.009Z,1010.03
2022-09-11T06:27:00.028Z,1010.02
2022-09-11T06:28:00.048Z,1010.08
2022-09-11T06:29:00.067Z,1010.08
2022-09-11T06:30:00.091Z,1010.08
2022-09-11T06:31:00.154Z,1010.10
2022-09-11T06:32:00.121Z,1010.14
2022-09-11T06:33:00.139Z,1010.11
2022-09-11T06:34:00.160Z,1010.12
2022-09-11T06:35:00.176Z,1010.12
2022-09-11T06:36:00.199Z,1010.18
2022-09-11T06:37:00.214Z,1010.15
2022-09-11T06:38:00.234Z,1010.18
2022-09-11T06:39:00.253Z,1010.21
2022-09-11T06:40:00.377Z,1010.24
2022-09-11T06:41:00.290Z,1010.15
2022-09-11T06:42:00.323Z,1010.22
2022-09-11T06:43:00.328Z,1010.18
2022-09-11T06:44:00.346Z,1010.21
2022-09-11T06:45:00.369Z,1010.21
2022-09-11T06:46:00.476Z,1010.24
2022-09-11T06:47:00.405Z,1010.21
2022-09-11T06:48:00.423Z,1010.18
2022-09-11T06:49:00.444Z,1010.22
2022-09-11T06:50:00.460Z,1010.14
2022-09-11T06:51:00.483Z,1010.12
2022-09-11T06:52:00.500Z,1010.20
2022-09-11T06:53:00.521Z,1010.21
2022-09-11T06:54:00.539Z,1010.20
2022-09-11T06:55:00.562Z,1010.19
2022-09-11T06:56:00.578Z,1010.21
2022-09-11T06:57:00.598Z,1010.20
2022-09-11T06:58:00.618Z,1010.20
2022-09-11T06:59:00.638Z,1010.19
2022-09-11T07:00:00.658Z,1010.16
2022-09-11T07:01:00.722Z,1010.19
2022-09-11T07:02:00.814Z,1010.19
2022-09-11T07:03:00.716Z,1010.20
2022-09-11T07:04:00.733Z,1010.16
2022-09-11T07:05:00.754Z,1010.24
2022-09-11T07:06:00.773Z,1010.17
2022-09-11T07:07:00.794Z,1010.22
2022-09-11T07:08:00.813Z,1010.20
2022-09-11T07:09:00.930Z,1010.23
2022-09-11T07:10:00.854Z,1010.24
2022-09-11T07:11:00.874Z,1010.19
2022-09-11T07:12:00.891Z,1010.22
2022-09-11T07:13:00.917Z,1010.24
2022-09-11T07:14:00.935Z,1010.25
2022-09-11T07:15:00.949Z,1010.22
2022-09-11T07:16:00.970Z,1010.22
2022-09-11T07:17:01.005Z,1010.27
2022-09-11T07:18:01.007Z,1010.25
2022-09-11T07:19:01.028Z,1010.24
2022-09-11T07:20:01.051Z,1010.28
2022-09-11T07:21:01.065Z,1010.32
2022-09-11T07:22:01.084Z,1010.31
2022-09-11T07:23:01.104Z,1010.29
2022-09-11T07:24:01.124Z,1010.29
2022-09-11T07:25:02.819Z,1010.29
2022-09-11T07:26:01.165Z,1010.31
2022-09-11T07:27:01.184Z,1010.29
2022-09-11T07:28:01.202Z,1010.32
2022-09-11T07:29:01.218Z,1010.34
2022-09-11T07:30:01.240Z,1010.35
2022-09-11T07:31:01.289Z,1010.34
2022-09-11T07:32:01.278Z,1010.33
2022-09-11T07:33:01.298Z,1010.36
2022-09-11T07:34:01.318Z,1010.32
2022-09-11T07:35:01.338Z,1010.38
2022-09-11T07:36:01.362Z,1010.42
2022-09-11T07:37:01.379Z,1010.32
2022-09-11T07:38:01.397Z,1010.30
2022-09-11T07:39:01.421Z,1010.38
2022-09-11T07:40:01.523Z,1010.36
2022-09-11T07:41:01.455Z,1010.32
2022-09-11T07:42:01.477Z,1010.33
2022-09-11T07:43:01.494Z,1010.35
2022-09-11T07:44:01.515Z,1010.38
2022-09-11T07:45:01.536Z,1010.38
2022-09-11T07:46:01.604Z,1010.41
2022-09-11T07:47:01.573Z,1010.43
2022-09-11T07:48:01.594Z,1010.48
2022-09-11T07:49:01.614Z,1010.50
2022-09-11T07:50:01.632Z,1010.48
2022-09-11T07:51:01.654Z,1010.50
2022-09-11T07:52:01.674Z,1010.48
2022-09-11T07:53:01.692Z,1010.51
2022-09-11T07:54:01.713Z,1010.50
2022-09-11T07:55:01.733Z,1010.52
2022-09-11T07:56:01.752Z,1010.51
2022-09-11T07:57:01.771Z,1010.49
2022-09-11T07:58:01.793Z,1010.52
2022-09-11T07:59:01.817Z,1010.54
2022-09-11T08:00:01.835Z,1010.50
2022-09-11T08:01:01.875Z,1010.55
2022-09-11T08:02:01.930Z,1010.59
2022-09-11T08:03:01.896Z,1010.53
2022-09-11T08:04:01.915Z,1010.50
2022-09-11T08:05:01.936Z,1010.49
2022-09-11T08:06:01.956Z,1010.45
2022-09-11T08:07:01.979Z,1010.48
2022-09-11T08:08:01.997Z,1010.55
2022-09-11T08:09:02.019Z,1010.53
2022-09-11T08:10:25.717Z,1010.49
2022-09-11T08:11:02.062Z,1010.57
2022-09-11T08:12:02.087Z,1010.61
2022-09-11T08:13:02.106Z,1010.62
2022-09-11T08:14:02.127Z,1010.66
2022-09-11T08:15:02.148Z,1010.68
2022-09-11T08:16:02.170Z,1010.69
2022-09-11T08:17:02.191Z,1010.68
2022-09-11T08:18:02.214Z,1010.65
2022-09-11T08:19:02.234Z,1010.69
2022-09-11T08:20:02.260Z,1010.66
2022-09-11T08:21:02.278Z,1010.68
2022-09-11T08:22:02.302Z,1010.64
2022-09-11T08:23:02.324Z,1010.68
2022-09-11T08:24:02.344Z,1010.65
2022-09-11T08:25:02.363Z,1010.67
2022-09-11T08:26:02.395Z,1010.71
2022-09-11T08:27:02.409Z,1010.74
2022-09-11T08:28:02.430Z,1010.77
2022-09-11T08:29:02.453Z,1010.84
2022-09-11T08:30:02.485Z,1010.91
2022-09-11T08:31:02.561Z,1010.92
2022-09-11T08:32:02.617Z,1010.88
2022-09-11T08:33:02.539Z,1010.93
2022-09-11T08:34:02.560Z,1010.91
2022-09-11T08:35:02.582Z,1010.88
2022-09-11T08:36:02.605Z,1010.87
2022-09-11T08:37:02.626Z,1010.97
2022-09-11T08:38:02.649Z,1010.97
2022-09-11T08:39:02.669Z,1010.99
2022-09-11T08:40:02.725Z,1010.99
2022-09-11T08:41:02.712Z,1010.97
2022-09-11T08:42:02.734Z,1010.96
2022-09-11T08:43:02.757Z,1010.92
2022-09-11T08:44:02.779Z,1010.97
2022-09-11T08:45:02.798Z,1010.91
2022-09-11T08:46:02.868Z,1010.92
2022-09-11T08:47:02.846Z,1010.93
2022-09-11T08:48:02.870Z,1010.97
2022-09-11T08:49:02.889Z,1010.98
2022-09-11T08:50:02.915Z,1010.97
2022-09-11T08:51:02.943Z,1010.97
2022-09-11T08:52:02.955Z,1010.99
2022-09-11T08:53:02.978Z,1010.98
2022-09-11T08:54:03.004Z,1010.96
2022-09-11T08:55:03.023Z,1010.94
2022-09-11T08:56:03.046Z,1010.94
2022-09-11T08:57:03.067Z,1010.97
2022-09-11T08:58:03.088Z,1010.96
2022-09-11T08:59:03.113Z,1010.95
2022-09-11T09:00:03.133Z,1010.86
2022-09-11T09:01:03.183Z,1010.90
2022-09-11T09:02:03.207Z,1010.88
2022-09-11T09:03:03.202Z,1010.89
2022-09-11T09:04:03.225Z,1010.92
2022-09-11T09:05:03.248Z,1010.91
2022-09-11T09:06:03.277Z,1010.93
2022-09-11T09:07:03.292Z,1010.89
2022-09-11T09:08:03.316Z,1010.92
2022-09-11T09:09:03.340Z,1010.91
2022-09-11T09:10:03.366Z,1010.92
2022-09-11T09:11:03.382Z,1010.98
2022-09-11T09:12:03.404Z,1011.01
2022-09-11T09:13:03.430Z,1011.09
2022-09-11T09:14:03.450Z,1010.97
2022-09-11T09:15:03.474Z,1010.97
2022-09-11T09:16:03.624Z,1010.92
2022-09-11T09:17:03.516Z,1010.95
2022-09-11T09:18:03.537Z,1010.97
2022-09-11T09:19:03.561Z,1011.03
2022-09-11T09:20:03.583Z,1011.06
2022-09-11T09:21:03.605Z,1011.06
2022-09-11T09:22:03.628Z,1011.13
2022-09-11T09:23:03.650Z,1011.16
2022-09-11T09:24:03.672Z,1011.17
2022-09-11T09:25:03.695Z,1011.16
2022-09-11T09:26:03.719Z,1011.13
2022-09-11T09:27:03.739Z,1011.14
2022-09-11T09:28:03.767Z,1011.11
2022-09-11T09:29:03.784Z,1011.12
2022-09-11T09:30:03.808Z,1011.19
2022-09-11T09:31:03.891Z,1011.16
2022-09-11T09:32:03.852Z,1011.17
2022-09-11T09:33:03.872Z,1011.15
2022-09-11T09:34:03.897Z,1011.12
2022-09-11T09:35:03.919Z,1011.16
2022-09-11T09:36:03.939Z,1011.12
2022-09-11T09:37:03.964Z,1011.10
2022-09-11T09:38:03.988Z,1011.07
2022-09-11T09:39:04.009Z,1011.07
2022-09-11T09:40:04.144Z,1011.04
2022-09-11T09:41:04.054Z,1011.01
2022-09-11T09:42:04.078Z,1011.00
2022-09-11T09:43:04.099Z,1011.01
2022-09-11T09:44:04.122Z,1011.05
2022-09-11T09:45:04.145Z,1011.08
2022-09-11T09:46:04.221Z,1011.07
2022-09-11T09:47:04.193Z,1011.14
2022-09-11T09:48:04.216Z,1011.11
2022-09-11T09:49:04.236Z,1011.10
2022-09-11T09:50:04.260Z,1011.12
2022-09-11T09:51:04.286Z,1011.11
2022-09-11T09:52:04.684Z,1011.11
2022-09-11T09:53:04.330Z,1011.16
2022-09-11T09:54:04.361Z,1011.17
2022-09-11T09:55:04.375Z,1011.13
2022-09-11T09:56:04.397Z,1011.16
2022-09-11T09:57:04.426Z,1011.12
2022-09-11T09:58:04.444Z,1011.17
2022-09-11T09:59:04.469Z,1011.13
2022-09-11T10:00:04.489Z,1011.08
2022-09-11T10:01:04.556Z,1011.01
2022-09-11T10:02:04.599Z,1011.05
2022-09-11T10:03:04.559Z,1011.04
2022-09-11T10:04:04.593Z,1011.02
2022-09-11T10:05:04.605Z,1011.00
2022-09-11T10:06:04.629Z,1011.03
2022-09-11T10:07:04.651Z,1011.02
2022-09-11T10:08:04.676Z,1011.00
2022-09-11T10:09:04.698Z,1011.04
2022-09-11T10:10:04.724Z,1011.07
2022-09-11T10:11:04.746Z,1011.11
2022-09-11T10:12:04.767Z,1011.11
2022-09-11T10:13:18.621Z,1011.19
2022-09-11T10:14:06.971Z,1011.24
2022-09-11T10:15:04.849Z,1011.26
2022-09-11T10:16:04.956Z,1011.28
2022-09-11T10:17:04.887Z,1011.27
2022-09-11T10:18:04.906Z,1011.21
2022-09-11T10:19:04.932Z,1011.24
2022-09-11T10:20:04.953Z,1011.23
2022-09-11T10:21:08.083Z,1011.24
2022-09-11T10:22:04.999Z,1011.22
2022-09-11T10:23:05.022Z,1011.23
2022-09-11T10:24:05.044Z,1011.21
2022-09-11T10:25:05.067Z,1011.11
2022-09-11T10:26:05.096Z,1011.18
2022-09-11T10:27:05.117Z,1011.19
2022-09-11T10:28:05.139Z,1011.22
2022-09-11T10:29:05.164Z,1011.24
2022-09-11T10:30:05.191Z,1011.21
2022-09-11T10:31:05.297Z,1011.23
2022-09-11T10:32:05.232Z,1011.23
2022-09-11T10:33:05.262Z,1011.27
2022-09-11T10:34:05.282Z,1011.28
2022-09-11T10:35:05.305Z,1011.24
2022-09-11T10:36:05.324Z,1011.26
2022-09-11T10:37:05.351Z,1011.28
2022-09-11T10:38:05.372Z,1011.28
2022-09-11T10:39:05.408Z,1011.31
2022-09-11T10:40:05.507Z,1011.30
2022-09-11T10:41:05.445Z,1011.28
2022-09-11T10:42:05.484Z,1011.26
2022-09-11T10:43:05.493Z,1011.30
2022-09-11T10:44:05.517Z,1011.29
2022-09-11T10:45:05.535Z,1011.31
2022-09-11T10:46:05.594Z,1011.29
2022-09-11T10:47:05.582Z,1011.22
2022-09-11T10:48:05.604Z,1011.21
2022-09-11T10:49:05.629Z,1011.19
2022-09-11T10:50:05.655Z,1011.30
2022-09-11T10:51:05.675Z,1011.31
2022-09-11T10:52:05.704Z,1011.39
2022-09-11T10:53:05.721Z,1011.38
2022-09-11T10:54:05.748Z,1011.42
2022-09-11T10:55:05.771Z,1011.44
2022-09-11T10:56:05.792Z,1011.39
2022-09-11T10:57:05.837Z,1011.36
2022-09-11T10:58:05.843Z,1011.36
2022-09-11T10:59:05.866Z,1011.38
2022-09-11T11:00:05.888Z,1011.43
2022-09-11T11:01:05.956Z,1011.43
2022-09-11T11:02:05.957Z,1011.43
2022-09-11T11:03:05.960Z,1011.35
2022-09-11T11:04:09.206Z,1011.32
2022-09-11T11:05:06.010Z,1011.32
2022-09-11T11:06:06.033Z,1011.27
2022-09-11T11:07:06.112Z,1011.20
2022-09-11T11:08:06.080Z,1011.25
2022-09-11T11:09:06.114Z,1011.29
2022-09-11T11:10:06.130Z,1011.31
2022-09-11T11:11:06.156Z,1011.33
2022-09-11T11:12:06.177Z,1011.32
2022-09-11T11:13:06.199Z,1011.31
2022-09-11T11:14:06.223Z,1011.35
2022-09-11T11:15:06.246Z,1011.36
2022-09-11T11:16:06.290Z,1011.35
2022-09-11T11:17:06.295Z,1011.36
2022-09-11T11:18:06.317Z,1011.36
2022-09-11T11:19:06.339Z,1011.35
2022-09-11T11:20:06.364Z,1011.34
2022-09-11T11:21:06.386Z,1011.33
2022-09-11T11:22:06.410Z,1011.32
2022-09-11T11:23:06.433Z,1011.30
2022-09-11T11:24:06.454Z,1011.29
2022-09-11T11:25:06.476Z,1011.31
2022-09-11T11:26:06.500Z,1011.33
2022-09-11T11:27:06.524Z,1011.30
2022-09-11T11:28:06.552Z,1011.38
2022-09-11T11:29:06.568Z,1011.44
2022-09-11T11:30:06.592Z,1011.51
2022-09-11T11:31:06.687Z,1011.53
2022-09-11T11:32:06.639Z,1011.51
2022-09-11T11:33:06.661Z,1011.52
2022-09-11T11:34:06.685Z,1011.50
2022-09-11T11:35:06.707Z,1011.50
2022-09-11T11:36:06.729Z,1011.46
2022-09-11T11:37:06.778Z,1011.47
2022-09-11T11:38:06.773Z,1011.45
2022-09-11T11:39:06.803Z,1011.37
2022-09-11T11:40:06.904Z,1011.40
2022-09-11T11:41:06.844Z,1011.36
2022-09-11T11:42:06.864Z,1011.38
2022-09-11T11:43:06.889Z,1011.35
2022-09-11T11:44:06.910Z,1011.35
2022-09-11T11:45:06.933Z,1011.36
2022-09-11T11:46:06.978Z,1011.33
2022-09-11T11:47:06.979Z,1011.34
2022-09-11T11:48:07.001Z,1011.34
2022-09-11T11:49:07.022Z,1011.39
2022-09-11T11:50:07.048Z,1011.39
2022-09-11T11:51:07.069Z,1011.43
2022-09-11T11:52:07.092Z,1011.49
2022-09-11T11:53:07.116Z,1011.48
2022-09-11T11:54:07.137Z,1011.48
2022-09-11T11:55:07.163Z,1011.43
2022-09-11T11:56:07.183Z,1011.40
2022-09-11T11:57:07.207Z,1011.41
2022-09-11T11:58:07.231Z,1011.39
2022-09-11T11:59:07.254Z,1011.40
2022-09-11T12:00:07.274Z,1011.41
2022-09-11T12:01:07.297Z,1011.40
2022-09-11T12:02:07.353Z,1011.41
2022-09-11T12:03:07.342Z,1011.43
2022-09-11T12:04:07.363Z,1011.37
2022-09-11T12:05:07.388Z,1011.41
2022-09-11T12:06:07.410Z,1011.43